Terminal Aerodrome Forecast
Issued by NWS Austin/San Antonio, TX

Current Version | Previous Version | Text Only | Print | Product List | Glossary On
Versions: 1 2 3 4 5 6 7 8 9 10 11 12 13 14 15 16 17 18 19 20 21 22 23 24 25 26
000
FTUS44 KEWX 161100
TAFAUS
TAF
KAUS 161138Z 1612/1718 14006KT P6SM SKC
     FM161500 17015KT P6SM SCT250
     FM170200 16009KT P6SM SCT040 BKN250
     FM170700 15007KT P6SM BKN015
     FM171100 15007KT 5SM -DZ BR BKN009=

USA.gov is the U.S. government's official web portal to all federal, state and local government web resources and services.